createdAt,value
2019-04-28T00:00:06.842Z,79.64
2019-04-28T00:02:40.833Z,79.28
2019-04-28T00:05:12.506Z,79.29
2019-04-28T00:07:44.262Z,79.43
2019-04-28T00:10:15.872Z,79.25
2019-04-28T00:12:47.454Z,79.37
2019-04-28T00:15:20.766Z,79.47
2019-04-28T00:17:51.769Z,79.43
2019-04-28T00:20:24.745Z,79.51
2019-04-28T00:22:57.647Z,79.61
2019-04-28T00:25:31.215Z,79.73
2019-04-28T00:28:03.356Z,79.81
2019-04-28T00:30:34.958Z,80.13
2019-04-28T00:33:07.529Z,80.46
2019-04-28T00:35:38.699Z,80.25
2019-04-28T00:38:11.510Z,80.48
2019-04-28T00:40:42.585Z,80.27
2019-04-28T00:43:13.699Z,80.19
2019-04-28T00:45:44.771Z,80.16
2019-04-28T00:48:16.297Z,80.08
2019-04-28T00:50:47.863Z,80.41
2019-04-28T00:53:20.705Z,80.32
2019-04-28T00:55:54.025Z,80.67
2019-04-28T00:58:25.517Z,80.90
2019-04-28T01:00:58.098Z,80.62
2019-04-28T01:03:29.447Z,80.47
2019-04-28T01:06:01.899Z,80.98
2019-04-28T01:08:33.462Z,80.98
2019-04-28T01:11:05.165Z,81.34
2019-04-28T01:13:36.645Z,81.42
2019-04-28T01:16:10.993Z,81.25
2019-04-28T01:18:44.773Z,81.32
2019-04-28T01:21:17.157Z,81.21
2019-04-28T01:23:50.045Z,81.62
2019-04-28T01:26:22.645Z,81.75
2019-04-28T01:28:55.236Z,81.48
2019-04-28T01:31:29.450Z,81.85
2019-04-28T01:34:03.540Z,81.70
2019-04-28T01:36:37.546Z,81.86
2019-04-28T01:39:10.049Z,81.68
2019-04-28T01:41:42.030Z,81.65
2019-04-28T01:44:14.404Z,81.33
2019-04-28T01:46:45.600Z,81.33
2019-04-28T01:49:17.188Z,81.87
2019-04-28T01:51:51.780Z,82.12
2019-04-28T01:54:22.743Z,81.98
2019-04-28T01:56:53.910Z,81.33
2019-04-28T01:59:25.227Z,81.58
2019-04-28T02:01:56.699Z,82.17
2019-04-28T02:04:30.041Z,83.03
2019-04-28T02:07:02.042Z,83.23
2019-04-28T02:09:33.617Z,83.11
2019-04-28T02:12:05.086Z,83.57
2019-04-28T02:14:37.680Z,83.69
2019-04-28T02:17:10.471Z,83.61
2019-04-28T02:19:42.204Z,83.75
2019-04-28T02:22:14.913Z,84.28
2019-04-28T02:24:46.422Z,84.31
2019-04-28T02:27:20.301Z,84.23
2019-04-28T02:29:51.808Z,84.87
2019-04-28T02:32:25.338Z,84.32
2019-04-28T02:34:57.455Z,84.57
2019-04-28T02:37:30.560Z,83.81
2019-04-28T02:40:03.513Z,83.51
2019-04-28T02:42:35.566Z,83.75
2019-04-28T02:45:11.324Z,83.62
2019-04-28T02:47:42.168Z,84.39
2019-04-28T02:50:15.607Z,84.01
2019-04-28T02:52:51.610Z,83.75
2019-04-28T02:55:21.700Z,83.91
2019-04-28T02:57:52.557Z,83.75
2019-04-28T03:00:24.909Z,83.69
2019-04-28T03:02:55.979Z,83.52
2019-04-28T03:05:27.690Z,83.32
2019-04-28T03:08:01.237Z,83.08
2019-04-28T03:10:34.436Z,83.02
2019-04-28T03:13:06.820Z,82.87
2019-04-28T03:15:38.115Z,82.79
2019-04-28T03:18:11.507Z,82.78
2019-04-28T03:20:42.219Z,82.75
2019-04-28T03:23:14.545Z,82.89
2019-04-28T03:25:50.645Z,82.87
2019-04-28T03:28:23.379Z,82.89
2019-04-28T03:30:56.341Z,82.75
2019-04-28T03:33:33.032Z,82.85
2019-04-28T03:36:07.843Z,82.71
2019-04-28T03:38:36.202Z,82.64
2019-04-28T03:41:07.801Z,82.78
2019-04-28T03:43:40.754Z,82.76
2019-04-28T03:46:14.182Z,82.72
2019-04-28T03:48:45.461Z,82.62
2019-04-28T03:51:17.257Z,82.47
2019-04-28T03:53:50.568Z,82.46
2019-04-28T03:56:21.424Z,82.42
2019-04-28T03:58:53.332Z,82.46
2019-04-28T04:01:25.039Z,82.40
2019-04-28T04:03:56.131Z,82.41
2019-04-28T04:06:31.057Z,82.56
2019-04-28T04:09:02.973Z,82.60
2019-04-28T04:11:37.606Z,82.66
2019-04-28T04:14:11.403Z,82.74
2019-04-28T04:16:47.160Z,82.57
2019-04-28T04:19:20.324Z,82.74
2019-04-28T04:21:52.730Z,82.75
2019-04-28T04:24:24.255Z,82.96
2019-04-28T04:26:55.958Z,82.97
2019-04-28T04:29:27.117Z,83.08
2019-04-28T04:32:11.689Z,83.17
2019-04-28T04:34:31.839Z,82.96
2019-04-28T04:37:03.513Z,83.02
2019-04-28T04:39:34.907Z,83.16
2019-04-28T04:42:06.839Z,83.17
2019-04-28T04:44:41.390Z,83.19
2019-04-28T04:47:11.188Z,83.02
2019-04-28T04:49:44.160Z,82.89
2019-04-28T04:52:16.486Z,82.87
2019-04-28T04:54:48.274Z,82.75
2019-04-28T04:57:20.770Z,82.65
2019-04-28T04:59:52.706Z,82.53
2019-04-28T05:02:29.222Z,82.48
2019-04-28T05:05:00.461Z,82.38
2019-04-28T05:07:32.071Z,82.49
2019-04-28T05:10:05.475Z,82.35
2019-04-28T05:12:37.023Z,82.00
2019-04-28T05:15:10.420Z,81.84
2019-04-28T05:17:41.832Z,81.82
2019-04-28T05:20:13.966Z,81.75
2019-04-28T05:22:46.943Z,81.49
2019-04-28T05:25:20.490Z,81.45
2019-04-28T05:27:54.474Z,81.59
2019-04-28T05:30:25.581Z,81.35
2019-04-28T05:32:57.458Z,81.27
2019-04-28T05:35:29.777Z,81.19
2019-04-28T05:38:01.187Z,80.89
2019-04-28T05:40:36.703Z,80.82
2019-04-28T05:43:11.863Z,80.73
2019-04-28T05:46:14.377Z,80.73
2019-04-28T05:49:01.212Z,80.53
2019-04-28T05:51:34.248Z,80.10
2019-04-28T05:54:09.869Z,80.33
2019-04-28T05:56:42.832Z,79.93
2019-04-28T05:59:15.776Z,79.85
2019-04-28T06:01:50.622Z,80.21
2019-04-28T06:04:23.342Z,79.62
2019-04-28T06:06:55.939Z,79.83
2019-04-28T06:09:29.488Z,80.02
2019-04-28T06:12:01.001Z,79.75
2019-04-28T06:14:32.432Z,79.82
2019-04-28T06:17:04.243Z,79.50
2019-04-28T06:19:35.358Z,79.32
2019-04-28T06:22:07.030Z,79.31
2019-04-28T06:24:38.982Z,78.90
2019-04-28T06:27:11.179Z,78.37
2019-04-28T06:29:42.899Z,78.29
2019-04-28T06:32:15.969Z,78.32
2019-04-28T06:34:47.372Z,77.41
2019-04-28T06:37:18.676Z,76.98
2019-04-28T06:39:50.641Z,76.28
2019-04-28T06:42:22.514Z,76.73
2019-04-28T06:44:54.019Z,75.93
2019-04-28T06:47:26.852Z,75.69
2019-04-28T06:49:58.381Z,75.44
2019-04-28T06:52:29.687Z,75.33
2019-04-28T06:55:01.846Z,75.73
2019-04-28T06:57:34.601Z,74.65
2019-04-28T07:00:07.763Z,74.23
2019-04-28T07:02:39.338Z,74.04
2019-04-28T07:05:11.938Z,74.03
2019-04-28T07:07:43.474Z,74.36
2019-04-28T07:10:15.264Z,74.12
2019-04-28T07:12:46.546Z,73.99
2019-04-28T07:15:21.227Z,73.85
2019-04-28T07:17:52.696Z,73.38
2019-04-28T07:20:26.502Z,73.94
2019-04-28T07:22:58.701Z,73.62
2019-04-28T07:25:30.703Z,73.71
2019-04-28T07:28:03.223Z,73.89
2019-04-28T07:30:36.342Z,73.40
2019-04-28T07:33:08.101Z,73.85
2019-04-28T07:35:42.171Z,73.89
2019-04-28T07:38:14.870Z,73.17
2019-04-28T07:40:46.623Z,72.75
2019-04-28T07:43:17.443Z,72.51
2019-04-28T07:45:48.631Z,72.58
2019-04-28T07:48:20.015Z,73.10
2019-04-28T07:50:52.036Z,73.22
2019-04-28T07:53:24.829Z,73.25
2019-04-28T07:55:57.359Z,73.55
2019-04-28T07:58:28.676Z,73.62
2019-04-28T08:01:01.017Z,73.13
2019-04-28T08:03:33.275Z,73.17
2019-04-28T08:06:08.342Z,72.47
2019-04-28T08:08:42.556Z,72.36
2019-04-28T08:11:14.315Z,71.78
2019-04-28T08:13:45.615Z,72.28
2019-04-28T08:16:17.055Z,72.00
2019-04-28T08:18:52.550Z,71.70
2019-04-28T08:21:29.378Z,71.95
2019-04-28T08:24:02.998Z,72.04
2019-04-28T08:26:36.305Z,71.82
2019-04-28T08:29:08.453Z,72.33
2019-04-28T08:31:41.523Z,72.03
2019-04-28T08:34:23.510Z,71.67
2019-04-28T08:36:57.311Z,71.87
2019-04-28T08:39:29.232Z,71.55
2019-04-28T08:42:01.691Z,72.02
2019-04-28T08:44:34.991Z,71.20
2019-04-28T08:47:06.310Z,71.46
2019-04-28T08:49:37.834Z,71.57
2019-04-28T08:52:10.477Z,71.86
2019-04-28T08:54:43.904Z,72.11
2019-04-28T08:57:18.672Z,72.39
2019-04-28T08:59:50.772Z,72.06
2019-04-28T09:02:22.473Z,72.14
2019-04-28T09:04:54.258Z,72.30
2019-04-28T09:07:27.056Z,72.15
2019-04-28T09:09:59.849Z,71.67
2019-04-28T09:12:31.256Z,71.74
2019-04-28T09:15:06.577Z,71.28
2019-04-28T09:17:43.783Z,71.21
2019-04-28T09:20:16.137Z,71.30
2019-04-28T09:22:47.083Z,71.09
2019-04-28T09:25:39.686Z,70.82
2019-04-28T09:28:29.108Z,70.82
2019-04-28T09:31:05.972Z,70.05
2019-04-28T09:33:41.510Z,69.75
2019-04-28T09:36:36.056Z,69.95
2019-04-28T09:39:14.296Z,69.12
2019-04-28T09:41:49.693Z,68.81
2019-04-28T09:44:23.992Z,68.88
2019-04-28T09:46:57.157Z,68.77
2019-04-28T09:49:29.137Z,68.42
2019-04-28T09:52:01.237Z,68.30
2019-04-28T09:54:35.318Z,68.06
2019-04-28T09:57:08.557Z,67.78
2019-04-28T09:59:40.521Z,67.55
2019-04-28T10:02:12.699Z,68.09
2019-04-28T10:04:47.875Z,66.51
2019-04-28T10:07:23.062Z,66.69
2019-04-28T10:09:57.375Z,66.72
2019-04-28T10:12:29.437Z,67.44
2019-04-28T10:15:01.497Z,66.63
2019-04-28T10:17:33.999Z,67.03
2019-04-28T10:20:07.897Z,66.44
2019-04-28T10:22:41.056Z,65.85
2019-04-28T10:25:13.476Z,65.43
2019-04-28T10:27:45.690Z,65.70
2019-04-28T10:30:17.596Z,66.10
2019-04-28T10:32:49.340Z,65.99
2019-04-28T10:35:21.278Z,65.20
2019-04-28T10:37:55.477Z,65.14
2019-04-28T10:40:30.953Z,65.32
2019-04-28T10:43:03.403Z,65.81
2019-04-28T10:45:37.096Z,65.39
2019-04-28T10:48:08.951Z,65.44
2019-04-28T10:50:42.276Z,65.36
2019-04-28T10:53:14.516Z,65.14
2019-04-28T10:55:46.102Z,64.43
2019-04-28T10:58:18.858Z,64.22
2019-04-28T11:00:50.403Z,63.94
2019-04-28T11:03:22.596Z,63.09
2019-04-28T11:05:55.119Z,63.43
2019-04-28T11:08:27.464Z,63.50
2019-04-28T11:11:04.141Z,62.86
2019-04-28T11:13:39.920Z,62.18
2019-04-28T11:16:19.477Z,62.62
2019-04-28T11:18:55.673Z,62.83
2019-04-28T11:21:39.843Z,63.16
2019-04-28T11:24:12.798Z,63.38
2019-04-28T11:26:45.884Z,63.67
2019-04-28T11:29:18.554Z,63.68
2019-04-28T11:31:52.221Z,63.05
2019-04-28T11:34:25.500Z,62.82
2019-04-28T11:36:57.065Z,62.72
2019-04-28T11:39:30.246Z,63.09
2019-04-28T11:42:01.314Z,62.04
2019-04-28T11:44:32.547Z,61.76
2019-04-28T11:47:05.500Z,62.36
2019-04-28T11:49:36.704Z,61.79
2019-04-28T11:52:08.553Z,62.45
2019-04-28T11:54:40.959Z,61.96
2019-04-28T11:57:12.403Z,62.19
2019-04-28T11:59:43.685Z,62.24
2019-04-28T12:02:15.374Z,62.39
2019-04-28T12:04:47.037Z,62.33
2019-04-28T12:07:18.925Z,61.86
2019-04-28T12:10:03.819Z,61.81
2019-04-28T12:12:26.576Z,62.36
2019-04-28T12:14:59.554Z,62.34
2019-04-28T12:17:30.858Z,62.88
2019-04-28T12:20:04.028Z,62.71
2019-04-28T12:22:35.917Z,62.49
2019-04-28T12:25:08.132Z,62.51
2019-04-28T12:27:39.315Z,62.89
2019-04-28T12:30:11.340Z,63.18
2019-04-28T12:32:43.488Z,63.10
2019-04-28T12:35:15.205Z,62.88
2019-04-28T12:37:49.152Z,62.92
2019-04-28T12:40:22.619Z,62.60
2019-04-28T12:42:54.492Z,63.44
2019-04-28T12:45:34.769Z,62.70
2019-04-28T12:47:59.375Z,63.22
2019-04-28T12:50:32.561Z,63.39
2019-04-28T12:53:03.909Z,63.75
2019-04-28T12:55:35.169Z,63.66
2019-04-28T12:58:06.676Z,63.83
2019-04-28T13:00:39.426Z,64.07
2019-04-28T13:03:12.220Z,63.99
2019-04-28T13:05:46.228Z,63.81
2019-04-28T13:08:18.185Z,63.68
2019-04-28T13:10:49.633Z,63.17
2019-04-28T13:13:21.137Z,63.38
2019-04-28T13:15:53.037Z,63.42
2019-04-28T13:18:24.977Z,63.54
2019-04-28T13:20:58.955Z,63.12
2019-04-28T13:23:29.365Z,62.84
2019-04-28T13:26:01.168Z,62.76
2019-04-28T13:28:32.613Z,62.68
2019-04-28T13:31:03.891Z,62.85
2019-04-28T13:33:35.249Z,63.04
2019-04-28T13:36:14.532Z,63.60
2019-04-28T13:38:40.603Z,63.48
2019-04-28T13:41:11.934Z,63.66
2019-04-28T13:43:46.750Z,63.60
2019-04-28T13:46:18.460Z,63.78
2019-04-28T13:48:49.935Z,64.03
2019-04-28T13:51:21.936Z,64.16
2019-04-28T13:53:53.677Z,64.39
2019-04-28T13:56:25.120Z,64.13
2019-04-28T13:58:57.829Z,64.52
2019-04-28T14:01:30.594Z,64.22
2019-04-28T14:04:03.216Z,64.67
2019-04-28T14:06:36.098Z,64.19
2019-04-28T14:09:10.289Z,64.77
2019-04-28T14:11:43.518Z,64.65
2019-04-28T14:14:15.303Z,63.92
2019-04-28T14:16:46.826Z,64.01
2019-04-28T14:19:18.085Z,63.69
2019-04-28T14:21:49.912Z,64.46
2019-04-28T14:24:21.209Z,64.61
2019-04-28T14:26:53.114Z,64.44
2019-04-28T14:29:25.036Z,64.49
2019-04-28T14:31:56.374Z,65.11
2019-04-28T14:34:28.528Z,64.66
2019-04-28T14:37:00.166Z,64.77
2019-04-28T14:39:33.144Z,64.58
2019-04-28T14:42:04.743Z,65.71
2019-04-28T14:44:35.921Z,67.08
2019-04-28T14:47:07.366Z,65.80
2019-04-28T14:49:38.585Z,66.56
2019-04-28T14:52:10.293Z,67.38
2019-04-28T14:54:41.669Z,68.25
2019-04-28T14:57:12.828Z,69.04
2019-04-28T14:59:44.071Z,68.26
2019-04-28T15:02:18.180Z,70.95
2019-04-28T15:04:51.294Z,69.92
2019-04-28T15:07:24.579Z,71.29
2019-04-28T15:09:57.829Z,71.51
2019-04-28T15:12:29.547Z,73.09
2019-04-28T15:15:01.212Z,73.75
2019-04-28T15:17:32.704Z,73.24
2019-04-28T15:20:05.086Z,74.23
2019-04-28T15:22:36.720Z,76.07
2019-04-28T15:25:08.598Z,74.17
2019-04-28T15:27:42.999Z,75.33
2019-04-28T15:30:15.022Z,76.48
2019-04-28T15:32:46.889Z,77.84
2019-04-28T15:35:18.890Z,76.83
2019-04-28T15:37:50.613Z,77.78
2019-04-28T15:40:22.778Z,78.19
2019-04-28T15:42:54.503Z,79.43
2019-04-28T15:45:26.215Z,79.04
2019-04-28T15:47:57.641Z,79.85
2019-04-28T15:50:30.221Z,80.28
2019-04-28T15:53:02.032Z,81.16
2019-04-28T15:55:34.865Z,81.22
2019-04-28T15:58:08.869Z,81.95
2019-04-28T16:00:43.269Z,82.39
2019-04-28T16:03:15.403Z,82.36
2019-04-28T16:05:46.459Z,82.72
2019-04-28T16:08:17.463Z,83.19
2019-04-28T16:10:49.975Z,83.11
2019-04-28T16:13:21.285Z,83.46
2019-04-28T16:15:53.093Z,84.18
2019-04-28T16:18:24.662Z,83.87
2019-04-28T16:20:56.282Z,84.71
2019-04-28T16:23:28.876Z,84.34
2019-04-28T16:26:00.500Z,85.41
2019-04-28T16:28:31.927Z,85.77
2019-04-28T16:31:03.583Z,84.80
2019-04-28T16:33:34.825Z,85.70
2019-04-28T16:36:06.086Z,85.85
2019-04-28T16:38:37.664Z,85.67
2019-04-28T16:41:10.899Z,85.69
2019-04-28T16:43:42.578Z,86.61
2019-04-28T16:46:14.102Z,86.96
2019-04-28T16:48:45.712Z,87.36
2019-04-28T16:51:17.391Z,87.04
2019-04-28T16:53:49.017Z,86.93
2019-04-28T16:56:21.919Z,87.39
2019-04-28T16:58:54.676Z,88.43
2019-04-28T17:01:27.611Z,88.07
2019-04-28T17:03:58.967Z,88.28
2019-04-28T17:06:30.231Z,88.46
2019-04-28T17:09:01.849Z,87.62
2019-04-28T17:11:35.132Z,87.65
2019-04-28T17:14:06.806Z,88.56
2019-04-28T17:16:38.747Z,88.25
2019-04-28T17:19:10.789Z,87.22
2019-04-28T17:21:41.568Z,87.34
2019-04-28T17:24:13.558Z,87.78
2019-04-28T17:26:49.639Z,87.79
2019-04-28T17:29:22.118Z,89.01
2019-04-28T17:31:54.154Z,88.11
2019-04-28T17:34:27.345Z,88.43
2019-04-28T17:36:59.943Z,88.51
2019-04-28T17:39:32.732Z,88.96
2019-04-28T17:42:06.081Z,89.16
2019-04-28T17:44:38.201Z,87.75
2019-04-28T17:47:10.061Z,88.87
2019-04-28T17:49:45.522Z,88.47
2019-04-28T17:52:16.402Z,88.25
2019-04-28T17:54:47.116Z,89.12
2019-04-28T17:57:25.368Z,89.04
2019-04-28T18:00:02.289Z,88.98
2019-04-28T18:02:36.494Z,89.50
2019-04-28T18:05:09.329Z,89.78
2019-04-28T18:07:40.129Z,89.27
2019-04-28T18:10:11.463Z,90.13
2019-04-28T18:12:42.261Z,90.17
2019-04-28T18:15:15.171Z,89.86
2019-04-28T18:17:48.152Z,89.86
2019-04-28T18:20:19.032Z,89.95
2019-04-28T18:22:51.279Z,90.42
2019-04-28T18:25:24.392Z,89.93
2019-04-28T18:28:00.682Z,90.32
2019-04-28T18:30:36.974Z,89.57
2019-04-28T18:33:12.764Z,90.75
2019-04-28T18:35:45.663Z,90.42
2019-04-28T18:38:19.230Z,90.34
2019-04-28T18:40:53.867Z,91.05
2019-04-28T18:43:27.992Z,91.14
2019-04-28T18:45:59.746Z,90.80
2019-04-28T18:48:31.967Z,91.07
2019-04-28T18:51:05.464Z,90.72
2019-04-28T18:53:36.918Z,90.76
2019-04-28T18:56:08.671Z,90.81
2019-04-28T18:58:39.877Z,90.51
2019-04-28T19:01:12.484Z,91.38
2019-04-28T19:03:43.750Z,91.02
2019-04-28T19:06:15.288Z,91.30
2019-04-28T19:08:49.604Z,90.88
2019-04-28T19:11:22.194Z,90.83
2019-04-28T19:13:54.761Z,90.86
2019-04-28T19:16:28.531Z,90.99
2019-04-28T19:19:01.573Z,90.37
2019-04-28T19:21:36.478Z,91.22
2019-04-28T19:24:07.991Z,91.21
2019-04-28T19:26:39.591Z,91.27
2019-04-28T19:29:10.380Z,90.85
2019-04-28T19:31:41.921Z,91.02
2019-04-28T19:34:13.393Z,91.50
2019-04-28T19:36:46.587Z,91.32
2019-04-28T19:39:19.284Z,91.64
2019-04-28T19:41:52.865Z,91.93
2019-04-28T19:44:24.647Z,91.81
2019-04-28T19:46:56.411Z,91.68
2019-04-28T19:49:29.805Z,91.06
2019-04-28T19:52:01.935Z,90.99
2019-04-28T19:54:35.825Z,91.20
2019-04-28T19:57:08.896Z,91.28
2019-04-28T19:59:41.807Z,91.33
2019-04-28T20:02:14.106Z,91.67
2019-04-28T20:04:46.012Z,91.88
2019-04-28T20:07:18.554Z,92.33
2019-04-28T20:09:51.681Z,92.24
2019-04-28T20:12:23.454Z,91.92
2019-04-28T20:14:55.827Z,91.91
2019-04-28T20:17:27.685Z,92.22
2019-04-28T20:19:59.298Z,91.85
2019-04-28T20:22:49.796Z,92.08
2019-04-28T20:25:39.247Z,91.88
2019-04-28T20:28:29.863Z,92.24
2019-04-28T20:31:01.334Z,91.82
2019-04-28T20:33:36.598Z,91.78
2019-04-28T20:36:09.905Z,91.50
2019-04-28T20:38:44.613Z,91.93
2019-04-28T20:41:26.832Z,91.89
2019-04-28T20:44:09.932Z,91.97
2019-04-28T20:46:52.945Z,91.64
2019-04-28T20:49:41.555Z,92.01
2019-04-28T20:52:22.323Z,92.33
2019-04-28T20:54:55.440Z,92.55
2019-04-28T20:57:27.341Z,92.27
2019-04-28T21:00:00.160Z,92.56
2019-04-28T21:02:31.885Z,92.54
2019-04-28T21:05:04.393Z,93.08
2019-04-28T21:07:37.727Z,93.14
2019-04-28T21:10:10.053Z,93.37
2019-04-28T21:12:41.385Z,93.50
2019-04-28T21:15:13.804Z,93.23
2019-04-28T21:17:45.639Z,93.36
2019-04-28T21:20:17.432Z,93.30
2019-04-28T21:22:49.966Z,93.59
2019-04-28T21:25:22.020Z,93.17
2019-04-28T21:27:53.305Z,93.50
2019-04-28T21:30:26.848Z,93.34
2019-04-28T21:32:59.075Z,93.56
2019-04-28T21:35:31.546Z,93.57
2019-04-28T21:38:02.664Z,93.64
2019-04-28T21:40:35.847Z,93.21
2019-04-28T21:43:08.857Z,92.89
2019-04-28T21:45:41.929Z,93.24
2019-04-28T21:48:14.906Z,93.31
2019-04-28T21:50:46.326Z,93.36
2019-04-28T21:53:19.277Z,93.13
2019-04-28T21:55:51.727Z,92.99
2019-04-28T21:58:32.851Z,92.99
2019-04-28T22:00:57.042Z,93.31
2019-04-28T22:03:28.449Z,93.41
2019-04-28T22:06:00.597Z,93.49
2019-04-28T22:08:31.764Z,93.12
2019-04-28T22:11:03.069Z,93.16
2019-04-28T22:13:33.905Z,93.05
2019-04-28T22:16:04.952Z,93.36
2019-04-28T22:18:36.125Z,93.30
2019-04-28T22:21:08.975Z,92.97
2019-04-28T22:23:41.696Z,93.20
2019-04-28T22:26:15.855Z,93.06
2019-04-28T22:28:46.946Z,93.23
2019-04-28T22:31:17.935Z,93.29
2019-04-28T22:33:49.508Z,93.39
2019-04-28T22:36:21.051Z,93.37
2019-04-28T22:38:52.337Z,93.08
2019-04-28T22:41:23.641Z,93.12
2019-04-28T22:43:56.488Z,93.37
2019-04-28T22:46:28.741Z,93.28
2019-04-28T22:49:01.474Z,93.30
2019-04-28T22:51:33.578Z,93.29
2019-04-28T22:54:08.019Z,93.65
2019-04-28T22:56:40.978Z,93.72
2019-04-28T22:59:14.128Z,93.53
2019-04-28T23:01:49.357Z,93.60
2019-04-28T23:04:21.920Z,93.68
2019-04-28T23:06:53.746Z,93.54
2019-04-28T23:09:25.720Z,93.47
2019-04-28T23:11:57.207Z,93.47
2019-04-28T23:14:29.293Z,93.59
2019-04-28T23:17:00.829Z,93.42
2019-04-28T23:19:34.772Z,93.56
2019-04-28T23:22:07.766Z,93.18
2019-04-28T23:24:39.626Z,93.34
2019-04-28T23:27:11.071Z,93.28
2019-04-28T23:29:42.288Z,93.65
2019-04-28T23:32:14.516Z,93.86
2019-04-28T23:34:46.215Z,93.63
2019-04-28T23:37:17.746Z,93.65
2019-04-28T23:39:49.049Z,93.63
2019-04-28T23:42:22.304Z,93.76
2019-04-28T23:44:54.210Z,93.88
2019-04-28T23:47:25.834Z,94.06
2019-04-28T23:49:57.714Z,94.29
2019-04-28T23:52:30.868Z,94.32
2019-04-28T23:55:03.863Z,94.31
2019-04-28T23:57:35.106Z,94.43
